createdAt,value
2022-11-14T00:00:49.488Z,-2.19
2022-11-14T00:20:38.106Z,-1.86
2022-11-14T00:30:40.314Z,-1.42
2022-11-14T00:40:42.475Z,-1.67
2022-11-14T00:50:44.823Z,-1.36
2022-11-14T01:00:47.625Z,-1.32
2022-11-14T01:10:51.198Z,-1.48
2022-11-14T01:20:53.963Z,-1.40
2022-11-14T01:30:56.245Z,-1.32
2022-11-14T01:40:58.432Z,-1.32
2022-11-14T01:51:09.040Z,-0.95
2022-11-14T02:01:11.276Z,-0.64
2022-11-14T02:11:13.717Z,-0.63
2022-11-14T02:21:15.912Z,-0.82
2022-11-14T02:31:18.098Z,-0.78
2022-11-14T02:41:20.292Z,-0.81
2022-11-14T02:51:22.522Z,-0.93
2022-11-14T03:03:37.029Z,-1.01
2022-11-14T03:13:39.218Z,-0.56
2022-11-14T03:23:42.377Z,-0.48
2022-11-14T03:33:44.584Z,0.11
2022-11-14T03:43:46.810Z,0.32
2022-11-14T03:53:48.994Z,1.96
2022-11-14T04:03:51.178Z,2.52
2022-11-14T04:13:53.381Z,3.33
2022-11-14T04:23:55.816Z,3.03
2022-11-14T04:33:58.061Z,2.91
2022-11-14T04:44:00.442Z,2.99
2022-11-14T04:54:02.709Z,2.83
2022-11-14T05:04:05.096Z,3.39
2022-11-14T05:14:07.317Z,2.95
2022-11-14T05:24:09.554Z,2.90
2022-11-14T05:34:11.759Z,2.84
2022-11-14T05:44:13.947Z,2.96
2022-11-14T05:54:16.173Z,2.65
2022-11-14T06:04:18.367Z,2.41
2022-11-14T06:14:20.567Z,2.29
2022-11-14T06:24:22.755Z,2.29
2022-11-14T06:34:24.946Z,2.19
2022-11-14T06:44:30.786Z,2.08
2022-11-14T06:54:33.401Z,2.27
2022-11-14T07:04:35.567Z,2.26
2022-11-14T07:14:37.995Z,2.20
2022-11-14T07:24:40.176Z,2.24
2022-11-14T07:34:42.724Z,3.09
2022-11-14T07:44:45.188Z,4.14
2022-11-14T07:54:47.670Z,4.72
2022-11-14T08:04:49.824Z,6.05
2022-11-14T08:14:52.031Z,6.85
2022-11-14T08:24:54.294Z,9.35
2022-11-14T08:34:56.560Z,9.52
2022-11-14T08:44:58.816Z,10.40
2022-11-14T08:55:01.009Z,10.92
2022-11-14T09:05:03.474Z,10.93
2022-11-14T09:15:06.208Z,11.19
2022-11-14T09:25:09.221Z,11.31
2022-11-14T09:35:12.987Z,11.65
2022-11-14T09:45:17.308Z,12.05
2022-11-14T09:55:36.264Z,12.03
2022-11-14T10:05:43.116Z,12.17
2022-11-14T10:15:51.129Z,12.48
2022-11-14T10:26:26.603Z,12.60
2022-11-14T10:36:58.508Z,12.31
2022-11-14T10:47:14.805Z,11.72
2022-11-14T10:57:20.457Z,11.51
2022-11-14T11:07:45.464Z,11.64
2022-11-14T11:17:55.750Z,11.99
2022-11-14T11:28:16.923Z,12.31
2022-11-14T11:38:20.154Z,12.40
2022-11-14T11:48:25.895Z,12.60
2022-11-14T11:58:42.946Z,13.25
2022-11-14T12:08:55.264Z,13.10
2022-11-14T12:19:15.515Z,13.10
2022-11-14T12:29:31.046Z,13.20
2022-11-14T12:39:33.529Z,14.77
2022-11-14T12:49:48.144Z,13.82
2022-11-14T13:00:01.364Z,12.95
2022-11-14T13:10:14.663Z,12.07
2022-11-14T13:20:53.660Z,11.30
2022-11-14T13:31:17.693Z,10.35
2022-11-14T13:41:41.349Z,9.81
2022-11-14T13:51:53.096Z,9.05
2022-11-14T14:10:19.561Z,8.56
2022-11-14T14:20:21.742Z,8.48
2022-11-14T14:30:24.476Z,8.77
2022-11-14T14:40:36.551Z,8.27
2022-11-14T14:50:55.131Z,7.75
2022-11-14T15:01:03.431Z,7.71
2022-11-14T15:11:07.083Z,7.18
2022-11-14T15:21:16.275Z,6.44
2022-11-14T15:31:22.522Z,6.56
2022-11-14T15:41:28.062Z,6.12
2022-11-14T15:51:41.608Z,5.75
2022-11-14T16:01:45.764Z,5.88
2022-11-14T16:11:49.149Z,7.12
2022-11-14T16:21:51.441Z,8.06
2022-11-14T16:31:55.432Z,8.09
2022-11-14T16:50:24.326Z,7.80
2022-11-14T17:00:27.789Z,7.68
2022-11-14T17:10:29.943Z,7.74
2022-11-14T17:20:32.556Z,6.94
2022-11-14T17:30:34.757Z,6.62
2022-11-14T17:40:36.942Z,6.84
2022-11-14T17:50:40.145Z,7.09
2022-11-14T18:00:42.289Z,7.12
2022-11-14T18:10:44.552Z,7.06
2022-11-14T18:20:47.233Z,6.45
2022-11-14T18:30:56.810Z,5.99
2022-11-14T18:41:00.529Z,5.79
2022-11-14T18:51:05.753Z,5.91
2022-11-14T19:01:12.404Z,5.96
2022-11-14T19:11:36.005Z,6.19
2022-11-14T19:21:38.815Z,6.65
2022-11-14T19:31:42.302Z,6.79
2022-11-14T19:41:44.492Z,7.21
2022-11-14T19:51:47.148Z,7.57
2022-11-14T20:01:55.403Z,7.79
2022-11-14T20:11:57.809Z,7.94
2022-11-14T20:22:01.001Z,7.99
2022-11-14T20:32:03.550Z,8.07
2022-11-14T20:42:05.820Z,8.17
2022-11-14T20:52:08.119Z,8.16
2022-11-14T21:02:12.316Z,8.33
2022-11-14T21:12:15.095Z,8.23
2022-11-14T21:22:17.362Z,8.06
2022-11-14T21:40:12.991Z,6.57
2022-11-14T21:50:15.360Z,5.76
2022-11-14T22:00:17.619Z,5.16
2022-11-14T22:10:19.818Z,4.61
2022-11-14T22:20:23.488Z,4.31
2022-11-14T22:30:25.636Z,4.01
2022-11-14T22:40:27.812Z,3.67
2022-11-14T22:50:29.993Z,3.39
2022-11-14T23:00:32.153Z,3.02
2022-11-14T23:10:34.663Z,2.83
2022-11-14T23:20:36.884Z,2.66
2022-11-14T23:30:39.126Z,2.42
2022-11-14T23:40:41.358Z,2.19
2022-11-14T23:50:44.516Z,1.83
